METAR AND TAF INFORMATION
METAR FOR EBCI
ADDS - METARS form results

(1603 UTC 02 July 2020)
Data provider http://aviationweather.gov/metar/data/
 
METAR text: EBCI 021550Z 25012KT 220V280 9999 FEW040 19/10 Q1014 NOSIG
Conditions at: EBCI (CHARLEROI/GOSSEL, BE) observed 1550 UTC 02 July 2020
Temperature: 19.0°C (66°F)
Dewpoint: 10.0°C (50°F) [RH = 56%]
Pressure (altimeter): 29.94 inches Hg (1014.0 mb)
Winds: from the WSW (250 degrees) at 14 MPH (12 knots; 6.2 m/s)
Visibility: 6 or more miles (10+ km)
Ceiling: at least 12,000 feet AGL
Clouds: few clouds at 4000 feet AGL
Weather: no significant weather observed at this time

METAR text: EBCI 021520Z 26014KT 230V290 9999 FEW038 19/08 Q1013 NOSIG
Conditions at: EBCI (CHARLEROI/GOSSEL, BE) observed 1520 UTC 02 July 2020
Temperature: 19.0°C (66°F)
Dewpoint: 8.0°C (46°F) [RH = 49%]
Pressure (altimeter): 29.91 inches Hg (1013.0 mb)
Winds: from the W (260 degrees) at 16 MPH (14 knots; 7.2 m/s)
Visibility: 6 or more miles (10+ km)
Ceiling: at least 12,000 feet AGL
Clouds: few clouds at 3800 feet AGL
Weather: no significant weather observed at this time

Forecast for: EBCI (CHARLEROI/GOSSEL, BE)
Text: TAF EBCI 021120Z 0212/0318 26010KT 9999 SCT030
Forecast period: 1200 UTC 02 July 2020 to 1800 UTC 03 July 2020
Forecast type: FROM: standard forecast or significant change
Winds: from the W (260 degrees) at 12 MPH (10 knots; 5.1 m/s)
Visibility: 6 or more miles 10+ km)
Ceiling: at least 12,000 feet AGL
Clouds: scattered clouds at 3000 feet AGL
Weather: no significant weather forecast for this period
Text: TEMPO 0301/0309 BKN012
Forecast period: 0100 to 0900 UTC 03 July 2020
Forecast type: TEMPORARY: The following changes expected for less than half the time period
Visibility: missing
Ceiling: 1200 feet AGL
Clouds: broken clouds at 1200 feet AGL
Weather: no significant weather forecast for this period
Text: PROB30
Forecast period: 0100 to 0800 UTC 03 July 2020
Forecast type: TEMPORARY: The following changes expected for less than half the time period
Visibility: missing
Ceiling: 800 feet AGL
Clouds: broken clouds at 800 feet AGL
Weather: no significant weather forecast for this period

 AIRPORT MAP

 RUNWAY INFORMATION
Runway 07 Runway length 8366 ft Runway width 148 ft
Runway elevation 611 ft Runway displaced threshold 1477 ft Runway heading 66
Runway 25 Runway length 8366 ft Runway width 148 ft
Runway elevation 583 ft Runway displaced threshold 0 ft Runway heading 246

 AIRPORT FREQUENCIES
Type APP Name CHARLEROI Frequency 133.125 MHZ
Type ATIS Name ATIS Frequency 134.625 MHZ
Type GND Name CHARLEROI Frequency 121.8 MHZ
Type TWR Name CHARLEROI Frequency 121.3 MHZ

 AIRPORT NEAR NAVIGATION AIDS
Type VOR-DME Name Gosly Frequency 115700 KHZ
Type NDB Name Charleroi Frequency 323 KHZ



Powered by Virtual Airlines Manager [v2.6.2]